Terminal Aerodrome Forecast
Issued by NWS

Home | Current Version | Previous Version | Text Only | Print | Product List | Glossary On
Versions: 1 2 3 4 5 6 7 8 9 10 11 12 13 14 15 16 17 18
000
FTUS46 KSEW 221700
TAFBLI
TAF
KBLI 221720Z 2218/2318 16006KT P6SM FEW015 SCT022 BKN035
      TEMPO 2218/2220 -SHRA SCT015 OVC022
     FM222000 19006KT P6SM SCT025 BKN035 OVC050
     FM230500 VRB03KT P6SM -SHRA SCT035 BKN070 OVC120
     FM231500 16004KT P6SM -RA OVC025=

USA.gov is the U.S. government's official web portal to all federal, state and local government web resources and services.